Flight Track Log - Related Links

Times and Time Zones

All times are in EDT time to prevent confusion due to time zone crossing. See the SWA1969 flight status page for this flight to view local times or setup timezone preferences in your user account.

Time Position Orientation Groundspeed Altitude Reporting Facility
EDT Latitude Longitude Course Direction KTS MPH feet Rate Location/Type
Fri 08:54:39 35.4561 -97.5844 35° Northeast 251 289 4,000  Level Fort Center
Fri 08:55:34 35.4875 -97.5106 62° Northeast 277 319 5,500 2,625 Climbing Fort Center
Fri 08:57:19 35.5447 -97.3781 62° Northeast 277 319 11,000 2,946 Climbing Kansas Center
Fri 08:58:21 35.5958 -97.2567 63° Northeast 326 375 13,700 2,732 Climbing Kansas Center
Fri 08:59:22 35.6417 -97.1456 63° Northeast 356 410 16,600 2,656 Climbing Kansas Center
Fri 09:00:23 35.6914 -97.0261 63° Northeast 382 440 19,100 2,508 Climbing Kansas Center
Fri 09:01:24 35.7425 -96.9022 63° Northeast 400 460 21,700 2,371 Climbing Kansas Center
Fri 09:02:27 35.7956 -96.7739 63° Northeast 415 478 24,000 2,081 Climbing Kansas Center
Fri 09:03:28 35.8622 -96.6539 56° Northeast 431 496 26,000 1,869 Climbing Kansas Center
Fri 09:04:29 35.9453 -96.5489 46° Northeast 430 495 27,800 1,736 Climbing Kansas Center
Fri 09:05:29 36.0292 -96.4392 47° Northeast 437 503 29,500 1,887 Climbing Kansas Center
Fri 09:06:33 36.1164 -96.3242 47° Northeast 443 510 31,700 1,951 Climbing Kansas Center
Fri 09:07:32 36.2003 -96.2161 46° Northeast 437 503 33,500 1,610 Climbing Kansas Center
Fri 09:08:36 36.2989 -96.0847 47° Northeast 434 499 35,000 720 Climbing Kansas Center
Fri 09:09:37 36.3822 -95.9747 47° Northeast 435 501 35,000  Level Kansas Center
Fri 09:10:37 36.4642 -95.8656 47° Northeast 430 495 35,000  Level Kansas Center
Fri 09:11:40 36.5461 -95.7564 47° Northeast 428 493 35,000  Level Kansas Center
Fri 09:12:40 36.6292 -95.6469 47° Northeast 428 493 35,000 248 Level Kansas Center
Fri 09:13:41 36.7111 -95.5358 47° Northeast 429 494 35,500 1,008 Climbing Kansas Center
Fri 09:14:45 36.7911 -95.4258 48° Northeast 426 490 37,100 1,392 Climbing Kansas Center
Fri 09:15:46 36.8714 -95.3175 47° Northeast 422 486 38,400 934 Climbing Kansas Center
Fri 09:16:47 36.9508 -95.2106 47° Northeast 419 482 39,000 295 Climbing Kansas Center
Fri 09:17:48 37.0292 -95.1039 47° Northeast 416 479 39,000  Level Kansas Center
Fri 09:18:52 37.1075 -94.9964 48° Northeast 417 480 39,000  Level Kansas Center
Fri 09:19:54 37.1861 -94.8881 48° Northeast 417 480 39,000  Level Kansas Center
Fri 09:20:54 37.2792 -94.7617 47° Northeast 412 474 39,000  Level Kansas Center
Fri 09:21:55 37.3558 -94.6583 47° Northeast 406 467 39,000  Level Kansas Center
Fri 09:22:58 37.4308 -94.5511 49° Northeast 406 467 39,000  Level Kansas Center
Fri 09:23:59 37.5067 -94.4453 48° Northeast 406 467 39,000  Level Kansas Center
Fri 09:25:00 37.5836 -94.3414 47° Northeast 406 467 39,000  Level Kansas Center
Fri 09:26:03 37.6603 -94.2322 48° Northeast 412 474 39,000  Level Kansas Center
Fri 09:27:05 37.7339 -94.1294 48° Northeast 412 474 39,000  Level Kansas Center
Fri 09:28:05 37.8264 -94.0006 48° Northeast 410 472 39,000  Level Kansas Center
Fri 09:29:09 37.9019 -93.8931 48° Northeast 408 470 39,000  Level Kansas Center
Fri 09:30:11 37.9781 -93.7853 48° Northeast 407 468 39,000  Level Kansas Center
Fri 09:31:12 38.0536 -93.6772 48° Northeast 408 470 39,000  Level Kansas Center
Fri 09:32:12 38.1289 -93.5697 48° Northeast 406 467 39,000  Level Kansas Center
Fri 09:33:15 38.2050 -93.4600 49° Northeast 408 470 39,000  Level Kansas Center
Fri 09:34:16 38.2811 -93.3500 49° Northeast 410 472 39,000  Level Kansas Center
Fri 09:35:20 38.3583 -93.2411 48° Northeast 411 473 39,000  Level Kansas Center
Fri 09:36:20 38.4342 -93.1308 49° Northeast 410 472 39,000  Level Kansas Center
Fri 09:37:21 38.5261 -92.9975 49° Northeast 412 474 39,000  Level Kansas Center
Fri 09:38:23 38.6014 -92.8864 49° Northeast 411 473 39,000  Level Kansas Center
Fri 09:39:26 38.6764 -92.7758 49° Northeast 409 471 39,000  Level Kansas Center
Fri 09:40:27 38.7508 -92.6653 49° Northeast 408 470 39,000  Level Kansas Center
Fri 09:41:30 38.8250 -92.5572 49° Northeast 404 465 39,000  Level Kansas Center
Fri 09:42:31 38.8986 -92.4492 49° Northeast 401 461 39,000  Level Kansas Center
Fri 09:43:32 38.9714 -92.3403 49° Northeast 399 459 39,000  Level Kansas Center
Fri 09:44:36 39.0442 -92.2317 49° Northeast 399 459 39,000  Level Kansas Center
Fri 09:45:37 39.1164 -92.1233 49° Northeast 398 458 39,000  Level Kansas Center
Fri 09:46:38 39.1983 -91.9825 53° Northeast 401 461 39,000  Level Kansas Center
Fri 09:47:42 39.2622 -91.8700 54° Northeast 406 467 39,000  Level Kansas Center
Fri 09:48:43 39.3289 -91.7528 54° Northeast 408 470 39,000 -934 Level Kansas Center
Fri 09:49:44 39.4019 -91.6264 53° Northeast 409 471 37,100 -1,355 Descending Kansas Center
Fri 09:50:47 39.4686 -91.5086 54° Northeast 407 468 36,200 -919 Descending Kansas Center
Fri 09:51:48 39.5414 -91.3797 54° Northeast 406 467 35,200 -581 Descending Kansas Center
Fri 09:52:51 39.6011 -91.2719 54° Northeast 406 467 35,000 -98 Descending Kansas Center
Fri 09:53:51 39.6686 -91.1531 54° Northeast 407 468 35,000  Level Kansas Center
Fri 09:54:55 39.7436 -91.0469 47° Northeast 403 464 35,000  Level Kansas Center
Fri 09:55:58 39.8411 -90.9478 38° Northeast 387 445 35,000 -432 Level Kansas Center
Fri 09:57:00 39.9258 -90.8642 37° Northeast 383 441 34,100 -934 Descending Kansas Center
Fri 09:58:00 40.0094 -90.7789 38° Northeast 383 441 33,100 -942 Descending Kansas Center
Fri 09:59:01 40.0853 -90.6742 47° Northeast 397 457 32,200 -1,020 Descending Kansas Center
Fri 09:59:40 40.1442 -90.5867 49° Northeast 399 459 31,400 -720 Descending Chicago Center
Fri 10:00:41 40.2211 -90.4767 47° Northeast 409 471 31,000 -195 Descending Chicago Center
Fri 10:01:43 40.2975 -90.3650 48° Northeast 410 472 31,000  Level Chicago Center
Fri 10:02:45 40.3725 -90.2525 49° Northeast 410 472 31,000 -97 Level Chicago Center
Fri 10:03:47 40.4475 -90.1414 48° Northeast 408 470 30,800 -1,210 Descending Chicago Center
Fri 10:04:49 40.5278 -90.0206 49° Northeast 380 437 28,500 -2,129 Descending Chicago Center
Fri 10:05:51 40.5975 -89.9167 49° Northeast 380 437 26,400 -2,081 Descending Chicago Center
Fri 10:06:53 40.6642 -89.8131 50° Northeast 372 428 24,200 -1,548 Descending Chicago Center
Fri 10:07:55 40.7225 -89.6950 57° Northeast 386 444 23,200 -1,403 Descending Chicago Center
Fri 10:08:57 40.7731 -89.5781 60° Northeast 372 428 21,300 -1,984 Descending Chicago Center
Fri 10:09:59 40.8314 -89.4422 60° Northeast 364 419 19,100 -1,839 Descending Chicago Center
Fri 10:11:01 40.8828 -89.3303 59° Northeast 359 413 17,500 -1,210 Descending Chicago Center
Fri 10:12:03 40.9483 -89.2361 47° Northeast 353 406 16,600 -919 Descending Chicago Center
Fri 10:13:05 41.0125 -89.1383 49° Northeast 352 405 15,600 -968 Descending Chicago Center
Fri 10:14:07 41.0733 -89.0450 49° Northeast 340 391 14,600 -968 Descending Chicago Center
Fri 10:15:09 41.1336 -88.9511 50° Northeast 337 388 13,600 -1,355 Descending Chicago Center
Fri 10:16:11 41.2056 -88.8425 49° Northeast 333 383 11,800 -1,645 Descending Chicago Center
Fri 10:17:13 41.2631 -88.7547 49° Northeast 322 371 10,200 -1,210 Descending Chicago Center
Fri 10:18:15 41.3144 -88.6742 50° Northeast 293 337 9,300 -1,113 Descending Chicago Center
Fri 10:19:17 41.3650 -88.5986 48° Northeast 279 321 7,900 -1,355 Descending Chicago Center
Fri 10:20:19 41.4133 -88.5231 50° Northeast 273 314 6,500 -968 Descending Chicago Center
Fri 10:21:21 41.4611 -88.4508 49° Northeast 267 307 5,900 -629 Descending Chicago Center
Fri 10:22:23 41.4842 -88.3572 72° East 246 283 5,200 -823 Descending Chicago Center
Fri 10:23:25 41.4933 -88.2739 82° East 233 268 4,200 -629 Descending Chicago Center
Fri 10:24:27 41.5133 -88.1989 70° East 218 251 3,900 -97 Descending Chicago Center
Fri 10:25:29 41.5328 -88.1242 71° East 213 245 4,000 48 Climbing Chicago Center
Fri 10:26:31 41.5525 -88.0494 71° East 213 245 4,000  Level Chicago Center
Fri 10:27:33 41.5936 -87.9939 45° Northeast 215 247 4,000 -48 Level Chicago Center
Fri 10:28:35 41.6344 -87.9425 43° Northeast 206 237 3,900 -290 Descending Chicago Center
Fri 10:29:37 41.6814 -87.8833 43° Northeast 199 229 3,400 -655 Descending Chicago Center
Fri 10:30:25 41.7167 -87.8500 35° Northeast 193 222 2,700 -722 Descending Chicago TRACON
Fri 10:31:25 41.7500 -87.8000 48° Northeast 135 155 2,100 -783 Descending Chicago TRACON
Fri 10:32:20 41.7667 -87.7833 37° Northeast 124 143 1,200 -982 Descending Chicago TRACON
Fri 10:34:00 41.7833 -87.7500 North  Level FlightAware

Login

Don't have an account? Register now (free) for customized features, flight alerts, and more!